Terminal Aerodrome Forecast
Issued by NWS

Home | Current Version | Previous Version | Text Only | Print | Product List | Glossary On
Versions: 1 2 3 4 5 6 7 8 9 10 11 12 13 14 15 16 17 18 19 20 21 22 23 24 25 26 27 28 29 30 31 32 33 34 35 36 37 38 39 40 41 42 43 44 45
000
FTUS45 KBOU 280540
TAFAPA
TAF
KAPA 280540Z 2806/2906 28006KT P6SM SCT045 BKN080
     FM280900 24006KT P6SM VCSH BKN035 OVC060
     FM281000 30006KT 5SM BR SCT025 BKN035 OVC050
     FM281100 34007KT 3/4SM BR BKN004 OVC015
     FM281500 35007KT P6SM VCSH BKN025 OVC045
     FM282000 02009KT 6SM -SHRA SCT015 OVC035
      TEMPO 2821/2824 03011KT 3SM -SHRA BR OVC015
     FM290000 05013KT 1SM RA BR BKN005 OVC008=

USA.gov is the U.S. government's official web portal to all federal, state and local government web resources and services.